Terminal Aerodrome Forecast
Issued by NWS

Home | Current Version | Previous Version | Text Only | Print | Product List | Glossary On
Versions: 1 2 3 4 5 6 7 8 9 10 11 12 13 14 15 16 17 18 19 20 21 22 23 24 25 26 27 28 29 30 31 32
000
FTUS44 KFWD 230500
TAFDAL
TAF
KDAL 230538Z 2306/2406 14009KT P6SM FEW007 SCT015 BKN100
     FM230900 20006KT 3SM BR SCT006 BKN011
      TEMPO 2310/2313 BKN008
     FM231400 21011KT P6SM SCT250
     FM231800 24017KT P6SM SKC
     FM232200 30023G33KT P6SM SKC
     FM240200 31018G28KT P6SM SCT080=

USA.gov is the U.S. government's official web portal to all federal, state and local government web resources and services.